createdAt,value
2017-01-25T00:00:08.490Z,24.14
2017-01-25T00:00:23.507Z,24.03
2017-01-25T00:00:38.273Z,24.08
2017-01-25T00:00:53.037Z,24.08
2017-01-25T00:01:07.775Z,24.07
2017-01-25T00:01:22.593Z,23.97
2017-01-25T00:01:37.565Z,24
2017-01-25T00:01:52.510Z,23.92
2017-01-25T00:02:07.406Z,23.89
2017-01-25T00:02:22.201Z,23.93
2017-01-25T00:02:37.091Z,23.97
2017-01-25T00:02:51.774Z,23.89
2017-01-25T00:03:06.613Z,23.89
2017-01-25T00:03:21.386Z,23.97
2017-01-25T00:03:36.296Z,23.96
2017-01-25T00:03:51.167Z,23.92
2017-01-25T00:04:06.088Z,23.94
2017-01-25T00:04:20.756Z,24
2017-01-25T00:04:35.648Z,23.99
2017-01-25T00:04:50.619Z,23.89
2017-01-25T00:05:05.745Z,23.96
2017-01-25T00:05:20.561Z,23.93
2017-01-25T00:05:35.602Z,23.87
2017-01-25T00:05:50.606Z,23.9
2017-01-25T00:06:05.541Z,23.93
2017-01-25T00:06:20.203Z,23.94
2017-01-25T00:06:35.102Z,23.99
2017-01-25T00:06:49.822Z,23.99
2017-01-25T00:07:04.906Z,23.93
2017-01-25T00:07:19.973Z,24.04
2017-01-25T00:07:34.871Z,24
2017-01-25T00:07:49.639Z,24.02
2017-01-25T00:08:04.559Z,23.93
2017-01-25T00:08:19.297Z,23.96
2017-01-25T00:08:34.090Z,23.94
2017-01-25T00:08:48.969Z,23.94
2017-01-25T00:09:03.907Z,23.92
2017-01-25T00:09:18.827Z,23.9
2017-01-25T00:09:33.938Z,23.92
2017-01-25T00:09:48.629Z,23.89
2017-01-25T00:10:03.232Z,23.9
2017-01-25T00:10:17.945Z,23.87
2017-01-25T00:10:32.744Z,23.9
2017-01-25T00:10:47.732Z,23.94
2017-01-25T00:11:02.784Z,23.82
2017-01-25T00:11:17.488Z,23.89
2017-01-25T00:11:32.152Z,23.9
2017-01-25T00:11:46.928Z,23.77
2017-01-25T00:12:01.595Z,23.81
2017-01-25T00:12:16.537Z,23.87
2017-01-25T00:12:31.025Z,23.87
2017-01-25T00:12:45.975Z,23.9
2017-01-25T00:13:00.814Z,23.87
2017-01-25T00:13:15.825Z,23.94
2017-01-25T00:13:30.957Z,23.9
2017-01-25T00:13:45.910Z,23.96
2017-01-25T00:14:00.894Z,23.93
2017-01-25T00:14:15.615Z,24
2017-01-25T00:14:30.471Z,23.99
2017-01-25T00:14:45.100Z,24.03
2017-01-25T00:15:00.053Z,24
2017-01-25T00:15:15.206Z,23.89
2017-01-25T00:15:30.369Z,23.92
2017-01-25T00:15:45.013Z,23.99
2017-01-25T00:15:59.692Z,23.92
2017-01-25T00:16:14.666Z,23.9
2017-01-25T00:16:29.731Z,24.03
2017-01-25T00:16:44.633Z,23.96
2017-01-25T00:16:59.341Z,23.96
2017-01-25T00:17:14.288Z,24
2017-01-25T00:17:29.253Z,24
2017-01-25T00:17:44.151Z,23.94
2017-01-25T00:17:58.949Z,23.84
2017-01-25T00:18:13.763Z,23.82
2017-01-25T00:18:28.571Z,23.81
2017-01-25T00:18:43.525Z,23.77
2017-01-25T00:18:58.458Z,23.79
2017-01-25T00:19:13.241Z,23.72
2017-01-25T00:19:28.261Z,23.78
2017-01-25T00:19:43.223Z,23.72
2017-01-25T00:19:58.351Z,23.71
2017-01-25T00:20:13.082Z,23.77
2017-01-25T00:20:27.830Z,23.72
2017-01-25T00:20:43.032Z,23.72
2017-01-25T00:20:57.957Z,23.67
2017-01-25T00:21:12.928Z,23.71
2017-01-25T00:21:27.701Z,23.75
2017-01-25T00:21:42.644Z,23.75
2017-01-25T00:21:57.620Z,23.71
2017-01-25T00:22:12.407Z,23.72
2017-01-25T00:22:27.382Z,23.74
2017-01-25T00:22:42.318Z,23.75
2017-01-25T00:22:57.360Z,23.78
2017-01-25T00:23:12.289Z,23.66
2017-01-25T00:23:27.268Z,23.71
2017-01-25T00:23:41.809Z,23.75
2017-01-25T00:23:56.587Z,23.74
2017-01-25T00:24:11.622Z,23.79
2017-01-25T00:24:26.266Z,23.77
2017-01-25T00:24:41.249Z,23.81
2017-01-25T00:24:55.987Z,23.75
2017-01-25T00:25:10.876Z,23.84
2017-01-25T00:25:25.494Z,23.78
2017-01-25T00:25:40.158Z,23.85
2017-01-25T00:25:54.883Z,23.84
2017-01-25T00:26:09.714Z,23.84
2017-01-25T00:26:24.577Z,23.85
2017-01-25T00:26:39.563Z,23.9
2017-01-25T00:26:54.497Z,23.94
2017-01-25T00:27:09.382Z,23.85
2017-01-25T00:27:24.312Z,23.89
2017-01-25T00:27:39.005Z,23.84
2017-01-25T00:27:53.824Z,23.89
2017-01-25T00:28:08.603Z,23.93
2017-01-25T00:28:23.542Z,23.9
2017-01-25T00:28:38.465Z,23.87
2017-01-25T00:28:53.295Z,23.87
2017-01-25T00:29:08.350Z,23.9
2017-01-25T00:29:23.197Z,24.02
2017-01-25T00:29:37.953Z,23.99
2017-01-25T00:29:53.108Z,23.97
2017-01-25T00:30:08.069Z,23.96
2017-01-25T00:30:23.149Z,24
2017-01-25T00:30:38.006Z,24.02
2017-01-25T00:30:53.015Z,23.92
2017-01-25T00:31:07.806Z,24.03
2017-01-25T00:31:22.645Z,23.92
2017-01-25T00:31:37.477Z,23.92
2017-01-25T00:31:52.288Z,23.89
2017-01-25T00:32:06.971Z,23.87
2017-01-25T00:32:21.632Z,23.77
2017-01-25T00:32:36.792Z,23.78
2017-01-25T00:32:51.712Z,23.77
2017-01-25T00:33:06.673Z,23.74
2017-01-25T00:33:21.889Z,23.82
2017-01-25T00:33:36.707Z,23.71
2017-01-25T00:33:51.872Z,23.7
2017-01-25T00:34:06.778Z,23.79
2017-01-25T00:34:21.676Z,23.77
2017-01-25T00:34:36.603Z,23.7
2017-01-25T00:34:51.469Z,23.71
2017-01-25T00:35:06.399Z,23.71
2017-01-25T00:35:21.327Z,23.71
2017-01-25T00:35:36.163Z,23.75
2017-01-25T00:35:51.075Z,23.77
2017-01-25T00:36:06.215Z,23.84
2017-01-25T00:36:20.994Z,23.78
2017-01-25T00:36:35.778Z,23.79
2017-01-25T00:36:50.609Z,23.78
2017-01-25T00:37:05.757Z,23.85
2017-01-25T00:37:20.594Z,23.82
2017-01-25T00:37:35.388Z,23.85
2017-01-25T00:37:50.323Z,23.81
2017-01-25T00:38:05.185Z,23.75
2017-01-25T00:38:20.005Z,23.82
2017-01-25T00:38:34.733Z,23.82
2017-01-25T00:38:49.850Z,23.85
2017-01-25T00:39:04.693Z,23.85
2017-01-25T00:39:19.579Z,23.89
2017-01-25T00:39:34.475Z,23.93
2017-01-25T00:39:49.151Z,23.85
2017-01-25T00:40:03.978Z,23.87
2017-01-25T00:40:18.821Z,23.84
2017-01-25T00:40:33.856Z,23.9
2017-01-25T00:40:48.628Z,23.89
2017-01-25T00:41:03.558Z,23.87
2017-01-25T00:41:18.381Z,23.85
2017-01-25T00:41:33.481Z,23.89
2017-01-25T00:41:48.310Z,23.9
2017-01-25T00:42:03.032Z,23.81
2017-01-25T00:42:18.050Z,23.87
2017-01-25T00:42:33.044Z,23.9
2017-01-25T00:42:47.870Z,23.79
2017-01-25T00:43:02.751Z,23.85
2017-01-25T00:43:17.448Z,23.89
2017-01-25T00:43:32.192Z,23.78
2017-01-25T00:43:47.265Z,23.84
2017-01-25T00:44:02.301Z,23.81
2017-01-25T00:44:17.294Z,23.79
2017-01-25T00:44:32.068Z,23.82
2017-01-25T00:44:47.090Z,23.82
2017-01-25T00:45:01.841Z,23.84
2017-01-25T00:45:16.806Z,23.85
2017-01-25T00:45:31.858Z,23.82
2017-01-25T00:45:46.696Z,23.82
2017-01-25T00:46:01.485Z,23.84
2017-01-25T00:46:16.158Z,23.74
2017-01-25T00:46:30.839Z,23.79
2017-01-25T00:46:45.656Z,23.82
2017-01-25T00:47:00.709Z,23.82
2017-01-25T00:47:15.672Z,23.87
2017-01-25T00:47:30.388Z,23.84
2017-01-25T00:47:45.508Z,23.78
2017-01-25T00:48:00.453Z,23.77
2017-01-25T00:48:15.541Z,23.85
2017-01-25T00:48:30.511Z,23.77
2017-01-25T00:48:45.208Z,23.84
2017-01-25T00:48:59.878Z,23.79
2017-01-25T00:49:14.943Z,23.78
2017-01-25T00:49:29.845Z,23.77
2017-01-25T00:49:44.742Z,23.66
2017-01-25T00:49:59.616Z,23.71
2017-01-25T00:50:14.568Z,23.7
2017-01-25T00:50:29.618Z,23.72
2017-01-25T00:50:44.505Z,23.66
2017-01-25T00:50:59.237Z,23.63
2017-01-25T00:51:14.025Z,23.72
2017-01-25T00:51:28.997Z,23.71
2017-01-25T00:51:43.718Z,23.57
2017-01-25T00:51:58.707Z,23.66
2017-01-25T00:52:13.837Z,23.55
2017-01-25T00:52:28.861Z,23.62
2017-01-25T00:52:43.916Z,23.64
2017-01-25T00:52:58.737Z,23.6
2017-01-25T00:53:13.657Z,23.63
2017-01-25T00:53:28.398Z,23.62
2017-01-25T00:53:43.454Z,23.66
2017-01-25T00:53:58.572Z,23.63
2017-01-25T00:54:13.574Z,23.78
2017-01-25T00:54:28.457Z,23.77
2017-01-25T00:54:43.373Z,23.75
2017-01-25T00:54:58.213Z,23.71
2017-01-25T00:55:13.090Z,23.64
2017-01-25T00:55:28.164Z,23.55
2017-01-25T00:55:43.283Z,23.63
2017-01-25T00:55:57.872Z,23.66
2017-01-25T00:56:12.824Z,23.63
2017-01-25T00:56:27.464Z,23.56
2017-01-25T00:56:41.953Z,23.64
2017-01-25T00:56:56.482Z,23.55
2017-01-25T00:57:11.142Z,23.6
2017-01-25T00:57:26.080Z,23.47
2017-01-25T00:57:40.768Z,23.57
2017-01-25T00:57:55.799Z,23.59
2017-01-25T00:58:10.647Z,23.5
2017-01-25T00:58:25.355Z,23.45
2017-01-25T00:58:40.323Z,23.45
2017-01-25T00:58:55.121Z,23.4
2017-01-25T00:59:09.917Z,23.52
2017-01-25T00:59:24.967Z,23.45
2017-01-25T00:59:40.004Z,23.45
2017-01-25T00:59:55.075Z,23.38
2017-01-25T01:00:10.157Z,23.47
2017-01-25T01:00:24.934Z,23.44
2017-01-25T01:00:39.871Z,23.38
2017-01-25T01:00:54.483Z,23.41
2017-01-25T01:01:09.299Z,23.37
2017-01-25T01:01:24.117Z,23.37
2017-01-25T01:01:38.919Z,23.29
2017-01-25T01:01:53.520Z,23.38
2017-01-25T01:02:08.414Z,23.32
2017-01-25T01:02:23.541Z,23.35
2017-01-25T01:02:38.256Z,23.35
2017-01-25T01:02:53.071Z,23.32
2017-01-25T01:03:07.987Z,23.29
2017-01-25T01:03:23.224Z,23.32
2017-01-25T01:03:38.044Z,23.35
2017-01-25T01:03:52.881Z,23.41
2017-01-25T01:04:07.793Z,23.37
2017-01-25T01:04:22.566Z,23.35
2017-01-25T01:04:37.489Z,23.37
2017-01-25T01:04:52.371Z,23.4
2017-01-25T01:05:07.242Z,23.38
2017-01-25T01:05:22.070Z,23.38
2017-01-25T01:05:36.896Z,23.35
2017-01-25T01:05:51.868Z,23.32
2017-01-25T01:06:06.891Z,23.34
2017-01-25T01:06:21.846Z,23.37
2017-01-25T01:06:36.731Z,23.42
2017-01-25T01:06:52.008Z,23.41
2017-01-25T01:07:06.775Z,23.44
2017-01-25T01:07:21.977Z,23.45
2017-01-25T01:07:37.014Z,23.45
2017-01-25T01:07:51.975Z,23.41
2017-01-25T01:08:06.700Z,23.42
2017-01-25T01:08:21.518Z,23.38
2017-01-25T01:08:36.242Z,23.4
2017-01-25T01:08:51.336Z,23.38
2017-01-25T01:09:06.287Z,23.37
2017-01-25T01:09:21.180Z,23.38
2017-01-25T01:09:35.900Z,23.41
2017-01-25T01:09:50.826Z,23.37
2017-01-25T01:10:05.899Z,23.48
2017-01-25T01:10:20.889Z,23.4
2017-01-25T01:10:35.494Z,23.53
2017-01-25T01:10:50.619Z,23.45
2017-01-25T01:11:05.367Z,23.4
2017-01-25T01:11:20.230Z,23.5
2017-01-25T01:11:35.332Z,23.41
2017-01-25T01:11:50.428Z,23.48
2017-01-25T01:12:05.143Z,23.45
2017-01-25T01:12:20.238Z,23.5
2017-01-25T01:12:35.249Z,23.48
2017-01-25T01:12:50.348Z,23.45
2017-01-25T01:13:05.222Z,23.4
2017-01-25T01:13:19.932Z,23.45
2017-01-25T01:13:34.663Z,23.45
2017-01-25T01:13:49.344Z,23.41
2017-01-25T01:14:04.271Z,23.4
2017-01-25T01:14:19.020Z,23.38
2017-01-25T01:14:33.876Z,23.41
2017-01-25T01:14:48.573Z,23.35
2017-01-25T01:15:03.257Z,23.42
2017-01-25T01:15:18.104Z,23.4
2017-01-25T01:15:33.041Z,23.5
2017-01-25T01:15:48.075Z,23.4
2017-01-25T01:16:02.938Z,23.56
2017-01-25T01:16:18.179Z,23.42
2017-01-25T01:16:32.858Z,23.48
2017-01-25T01:16:47.872Z,23.42
2017-01-25T01:17:02.666Z,23.44
2017-01-25T01:17:17.432Z,23.52
2017-01-25T01:17:32.340Z,23.47
2017-01-25T01:17:47.461Z,23.41
2017-01-25T01:18:02.672Z,23.42
2017-01-25T01:18:17.516Z,23.41
2017-01-25T01:18:32.152Z,23.41
2017-01-25T01:18:46.865Z,23.45
2017-01-25T01:19:01.577Z,23.44
2017-01-25T01:19:16.345Z,23.44
2017-01-25T01:19:31.334Z,23.53
2017-01-25T01:19:46.265Z,23.41
2017-01-25T01:20:01.180Z,23.37
2017-01-25T01:20:16.309Z,23.37
2017-01-25T01:20:31.233Z,23.35
2017-01-25T01:20:46.200Z,23.34
2017-01-25T01:21:01.307Z,23.4
2017-01-25T01:21:16.081Z,23.38
2017-01-25T01:21:31.058Z,23.28
2017-01-25T01:21:45.901Z,23.29
2017-01-25T01:22:00.650Z,23.25
2017-01-25T01:22:15.423Z,23.29
2017-01-25T01:22:30.384Z,23.21
2017-01-25T01:22:45.288Z,23.22
2017-01-25T01:23:00.101Z,23.25
2017-01-25T01:23:14.965Z,23.28
2017-01-25T01:23:29.786Z,23.24
2017-01-25T01:23:44.658Z,23.16
2017-01-25T01:23:59.536Z,23.21
2017-01-25T01:24:14.583Z,23.24
2017-01-25T01:24:29.700Z,23.21
2017-01-25T01:24:44.481Z,23.29
2017-01-25T01:24:59.540Z,23.29
2017-01-25T01:25:14.770Z,23.34
2017-01-25T01:25:29.817Z,23.28
2017-01-25T01:25:44.677Z,23.35
2017-01-25T01:25:59.330Z,23.29
2017-01-25T01:26:14.232Z,23.34
2017-01-25T01:26:29.047Z,23.21
2017-01-25T01:26:44.066Z,23.18
2017-01-25T01:26:58.972Z,23.16
2017-01-25T01:27:13.783Z,23.26
2017-01-25T01:27:28.741Z,23.21
2017-01-25T01:27:43.503Z,23.29
2017-01-25T01:27:58.312Z,23.21
2017-01-25T01:28:12.954Z,23.15
2017-01-25T01:28:27.880Z,23.24
2017-01-25T01:28:43.003Z,23.18
2017-01-25T01:28:57.634Z,23.15
2017-01-25T01:29:12.625Z,23.14
2017-01-25T01:29:27.799Z,23.19
2017-01-25T01:29:43.041Z,23.09
2017-01-25T01:29:58.194Z,23.18
2017-01-25T01:30:13.121Z,23.22
2017-01-25T01:30:28.235Z,23.18
2017-01-25T01:30:43.214Z,23.01
2017-01-25T01:30:58.489Z,23.06
2017-01-25T01:31:13.160Z,23.07
2017-01-25T01:31:27.962Z,23.07
2017-01-25T01:31:42.773Z,23.1
2017-01-25T01:31:57.730Z,23.03
2017-01-25T01:32:12.742Z,23.04
2017-01-25T01:32:27.796Z,23.03
2017-01-25T01:32:42.520Z,22.96
2017-01-25T01:32:57.313Z,23.01
2017-01-25T01:33:12.070Z,23.01
2017-01-25T01:33:26.757Z,22.97
2017-01-25T01:33:41.645Z,22.97
2017-01-25T01:33:56.473Z,22.96
2017-01-25T01:34:11.342Z,22.94
2017-01-25T01:34:26.028Z,22.94
2017-01-25T01:34:41.056Z,23
2017-01-25T01:34:56.139Z,23.06
2017-01-25T01:35:11.082Z,22.99
2017-01-25T01:35:26.122Z,23.06
2017-01-25T01:35:41.128Z,22.99
2017-01-25T01:35:56.010Z,22.94
2017-01-25T01:36:10.704Z,23.04
2017-01-25T01:36:25.604Z,23.06
2017-01-25T01:36:40.574Z,23.04
2017-01-25T01:36:55.165Z,23.03
2017-01-25T01:37:10.104Z,23.1
2017-01-25T01:37:25.151Z,23.06
2017-01-25T01:37:40.294Z,23.1
2017-01-25T01:37:55.017Z,23.16
2017-01-25T01:38:10.160Z,23.18
2017-01-25T01:38:24.993Z,23.16
2017-01-25T01:38:39.832Z,23.15
2017-01-25T01:38:54.777Z,23.15
2017-01-25T01:39:09.589Z,23.15
2017-01-25T01:39:24.229Z,23.19
2017-01-25T01:39:38.920Z,23.28
2017-01-25T01:39:53.688Z,23.24
2017-01-25T01:40:08.372Z,23.15
2017-01-25T01:40:23.336Z,23.28
2017-01-25T01:40:38.298Z,23.28
2017-01-25T01:40:53.243Z,23.34
2017-01-25T01:41:08.186Z,23.26
2017-01-25T01:41:22.685Z,23.35
2017-01-25T01:41:37.435Z,23.41
2017-01-25T01:41:52.097Z,23.34
2017-01-25T01:42:07.033Z,23.35
2017-01-25T01:42:21.957Z,23.42
2017-01-25T01:42:36.830Z,23.41
2017-01-25T01:42:51.747Z,23.38
2017-01-25T01:43:06.533Z,23.35
2017-01-25T01:43:21.437Z,23.41
2017-01-25T01:43:36.415Z,23.37
2017-01-25T01:43:51.265Z,23.41
2017-01-25T01:44:06.085Z,23.45
2017-01-25T01:44:20.794Z,23.41
2017-01-25T01:44:35.727Z,23.47
2017-01-25T01:44:50.709Z,23.47
2017-01-25T01:45:05.696Z,23.41
2017-01-25T01:45:20.487Z,23.48
2017-01-25T01:45:35.133Z,23.47
2017-01-25T01:45:50.080Z,23.4
2017-01-25T01:46:05.010Z,23.42
2017-01-25T01:46:19.695Z,23.48
2017-01-25T01:46:34.621Z,23.47
2017-01-25T01:46:49.491Z,23.48
2017-01-25T01:47:04.416Z,23.48
2017-01-25T01:47:19.398Z,23.45
2017-01-25T01:47:34.065Z,23.45
2017-01-25T01:47:48.804Z,23.44
2017-01-25T01:48:03.894Z,23.41
2017-01-25T01:48:18.984Z,23.47
2017-01-25T01:48:33.976Z,23.42
2017-01-25T01:48:48.487Z,23.38
2017-01-25T01:49:03.352Z,23.41
2017-01-25T01:49:18.032Z,23.41
2017-01-25T01:49:32.819Z,23.44
2017-01-25T01:49:47.765Z,23.34
2017-01-25T01:50:02.890Z,23.4
2017-01-25T01:50:17.744Z,23.38
2017-01-25T01:50:32.617Z,23.38
2017-01-25T01:50:47.692Z,23.37
2017-01-25T01:51:02.334Z,23.4
2017-01-25T01:51:17.352Z,23.45
2017-01-25T01:51:32.183Z,23.48
2017-01-25T01:51:47.021Z,23.47
2017-01-25T01:52:01.948Z,23.4
2017-01-25T01:52:16.630Z,23.4
2017-01-25T01:52:31.701Z,23.35
2017-01-25T01:52:46.880Z,23.38
2017-01-25T01:53:01.776Z,23.41
2017-01-25T01:53:16.689Z,23.38
2017-01-25T01:53:31.451Z,23.41
2017-01-25T01:53:46.253Z,23.34
2017-01-25T01:54:01.240Z,23.29
2017-01-25T01:54:16.050Z,23.29
2017-01-25T01:54:31.017Z,23.28
2017-01-25T01:54:45.954Z,23.24
2017-01-25T01:55:00.721Z,23.34
2017-01-25T01:55:15.803Z,23.28
2017-01-25T01:55:30.545Z,23.35
2017-01-25T01:55:45.385Z,23.19
2017-01-25T01:56:00.245Z,23.32
2017-01-25T01:56:15.041Z,23.19
2017-01-25T01:56:29.617Z,23.19
2017-01-25T01:56:44.411Z,23.19
2017-01-25T01:56:59.361Z,23.16
2017-01-25T01:57:14.055Z,23.19
2017-01-25T01:57:29.235Z,23.21
2017-01-25T01:57:44.212Z,23.19
2017-01-25T01:57:58.872Z,23.19
2017-01-25T01:58:13.597Z,23.15
2017-01-25T01:58:28.661Z,23.06
2017-01-25T01:58:43.712Z,23.06
2017-01-25T01:58:58.472Z,23.19
2017-01-25T01:59:13.272Z,23.06
2017-01-25T01:59:28.027Z,23.09
2017-01-25T01:59:42.728Z,23.06
2017-01-25T01:59:57.747Z,23.09
2017-01-25T02:00:12.559Z,23.09
2017-01-25T02:00:27.277Z,23.12
2017-01-25T02:00:42.049Z,23.12
2017-01-25T02:00:57.139Z,23.03
2017-01-25T02:01:11.947Z,23.12
2017-01-25T02:01:26.520Z,23.15
2017-01-25T02:01:41.139Z,23.07
2017-01-25T02:01:55.865Z,23.14
2017-01-25T02:02:10.866Z,23.03
2017-01-25T02:02:25.975Z,22.97
2017-01-25T02:02:40.730Z,22.99
2017-01-25T02:02:55.610Z,22.92
2017-01-25T02:03:10.507Z,22.94
2017-01-25T02:03:25.611Z,22.92
2017-01-25T02:03:40.354Z,22.89
2017-01-25T02:03:55.075Z,22.85
2017-01-25T02:04:09.893Z,22.86
2017-01-25T02:04:24.611Z,22.85
2017-01-25T02:04:39.371Z,22.86
2017-01-25T02:04:54.268Z,22.85
2017-01-25T02:05:09.091Z,22.79
2017-01-25T02:05:24.223Z,22.85
2017-01-25T02:05:39.037Z,22.85
2017-01-25T02:05:53.984Z,22.85
2017-01-25T02:06:08.487Z,22.84
2017-01-25T02:06:23.019Z,22.84
2017-01-25T02:06:37.970Z,22.84
2017-01-25T02:06:52.916Z,22.81
2017-01-25T02:07:08.097Z,22.82
2017-01-25T02:07:23.204Z,22.86
2017-01-25T02:07:37.854Z,22.86
2017-01-25T02:07:53.739Z,22.85
2017-01-25T02:08:08.602Z,22.85
2017-01-25T02:08:23.675Z,22.88
2017-01-25T02:08:38.776Z,22.85
2017-01-25T02:08:53.600Z,22.82
2017-01-25T02:09:08.340Z,22.84
2017-01-25T02:09:23.390Z,22.79
2017-01-25T02:09:38.332Z,22.82
2017-01-25T02:09:53.328Z,22.81
2017-01-25T02:10:08.112Z,22.81
2017-01-25T02:10:23.108Z,22.79
2017-01-25T02:10:38.128Z,22.75
2017-01-25T02:10:53.098Z,22.75
2017-01-25T02:11:07.741Z,22.71
2017-01-25T02:11:22.706Z,22.75
2017-01-25T02:11:37.229Z,22.76
2017-01-25T02:11:52.118Z,22.73
2017-01-25T02:12:06.992Z,22.7
2017-01-25T02:12:22.046Z,22.76
2017-01-25T02:12:36.901Z,22.75
2017-01-25T02:12:51.685Z,22.82
2017-01-25T02:13:06.579Z,22.73
2017-01-25T02:13:21.208Z,22.76
2017-01-25T02:13:36.133Z,22.81
2017-01-25T02:13:50.829Z,22.71
2017-01-25T02:14:05.792Z,22.69
2017-01-25T02:14:20.516Z,22.78
2017-01-25T02:14:35.441Z,22.79
2017-01-25T02:14:50.531Z,22.73
2017-01-25T02:15:05.460Z,22.78
2017-01-25T02:15:20.330Z,22.75
2017-01-25T02:15:35.210Z,22.69
2017-01-25T02:15:49.925Z,22.73
2017-01-25T02:16:05.023Z,22.69
2017-01-25T02:16:19.833Z,22.7
2017-01-25T02:16:34.548Z,22.69
2017-01-25T02:16:49.207Z,22.7
2017-01-25T02:17:04.276Z,22.67
2017-01-25T02:17:19.002Z,22.69
2017-01-25T02:17:33.924Z,22.64
2017-01-25T02:17:48.632Z,22.7
2017-01-25T02:18:03.594Z,22.66
2017-01-25T02:18:18.284Z,22.69
2017-01-25T02:18:33.310Z,22.66
2017-01-25T02:18:48.186Z,22.64
2017-01-25T02:19:03.331Z,22.66
2017-01-25T02:19:18.305Z,22.67
2017-01-25T02:19:33.194Z,22.71
2017-01-25T02:19:48.225Z,22.7
2017-01-25T02:20:03.397Z,22.64
2017-01-25T02:20:18.094Z,22.66
2017-01-25T02:20:32.860Z,22.69
2017-01-25T02:20:47.787Z,22.69
2017-01-25T02:21:02.766Z,22.67
2017-01-25T02:21:17.716Z,22.71
2017-01-25T02:21:32.624Z,22.69
2017-01-25T02:21:47.295Z,22.7
2017-01-25T02:22:02.071Z,22.67
2017-01-25T02:22:16.869Z,22.66
2017-01-25T02:22:31.489Z,22.63
2017-01-25T02:22:46.308Z,22.63
2017-01-25T02:23:01.604Z,22.6
2017-01-25T02:23:16.493Z,22.66
2017-01-25T02:23:31.462Z,22.64
2017-01-25T02:23:46.397Z,22.59
2017-01-25T02:24:01.217Z,22.64
2017-01-25T02:24:16.349Z,22.66
2017-01-25T02:24:31.098Z,22.64
2017-01-25T02:24:45.899Z,22.61
2017-01-25T02:25:00.602Z,22.64
2017-01-25T02:25:15.670Z,22.64
2017-01-25T02:25:30.578Z,22.61
2017-01-25T02:25:45.187Z,22.69
2017-01-25T02:26:00.043Z,22.71
2017-01-25T02:26:14.611Z,22.7
2017-01-25T02:26:29.693Z,22.7
2017-01-25T02:26:44.234Z,22.7
2017-01-25T02:26:59.239Z,22.69
2017-01-25T02:27:14.208Z,22.75
2017-01-25T02:27:29.413Z,22.73
2017-01-25T02:27:44.077Z,22.81
2017-01-25T02:27:59.121Z,22.81
2017-01-25T02:28:13.995Z,22.75
2017-01-25T02:28:28.548Z,22.75
2017-01-25T02:28:43.345Z,22.84
2017-01-25T02:28:58.131Z,22.84
2017-01-25T02:29:13.102Z,22.79
2017-01-25T02:29:28.021Z,22.76
2017-01-25T02:29:43.222Z,22.82
2017-01-25T02:29:58.069Z,22.84
2017-01-25T02:30:13.099Z,22.79
2017-01-25T02:30:28.164Z,22.81
2017-01-25T02:30:43.055Z,22.78
2017-01-25T02:30:57.830Z,22.81
2017-01-25T02:31:12.794Z,22.88
2017-01-25T02:31:27.892Z,22.84
2017-01-25T02:31:42.828Z,22.88
2017-01-25T02:31:57.700Z,22.88
2017-01-25T02:32:12.307Z,22.86
2017-01-25T02:32:27.085Z,22.94
2017-01-25T02:32:42.001Z,22.92
2017-01-25T02:32:56.780Z,22.86
2017-01-25T02:33:11.918Z,22.86
2017-01-25T02:33:26.518Z,23.03
2017-01-25T02:33:41.289Z,22.96
2017-01-25T02:33:56.038Z,22.96
2017-01-25T02:34:10.809Z,23.04
2017-01-25T02:34:25.692Z,23.09
2017-01-25T02:34:40.757Z,23.14
2017-01-25T02:34:55.600Z,23.04
2017-01-25T02:35:10.506Z,23.07
2017-01-25T02:35:25.078Z,23.07
2017-01-25T02:35:39.957Z,23.1
2017-01-25T02:35:54.698Z,23.04
2017-01-25T02:36:09.535Z,23.09
2017-01-25T02:36:24.434Z,23.12
2017-01-25T02:36:39.233Z,23.06
2017-01-25T02:36:54.010Z,23.04
2017-01-25T02:37:08.821Z,23.07
2017-01-25T02:37:23.494Z,23.1
2017-01-25T02:37:38.161Z,23.07
2017-01-25T02:37:52.934Z,23.06
2017-01-25T02:38:08.124Z,23.09
2017-01-25T02:38:23.122Z,23.12
2017-01-25T02:38:37.998Z,23.09
2017-01-25T02:38:52.870Z,23.12
2017-01-25T02:39:08.054Z,23.1
2017-01-25T02:39:22.853Z,23.1
2017-01-25T02:39:37.790Z,23.16
2017-01-25T02:39:52.985Z,23.14
2017-01-25T02:40:07.815Z,23.07
2017-01-25T02:40:22.735Z,23.15
2017-01-25T02:40:37.637Z,23.14
2017-01-25T02:40:52.565Z,23.04
2017-01-25T02:41:07.192Z,23.14
2017-01-25T02:41:21.999Z,23.18
2017-01-25T02:41:36.970Z,23.14
2017-01-25T02:41:52.037Z,23.1
2017-01-25T02:42:06.817Z,23.06
2017-01-25T02:42:21.599Z,23.09
2017-01-25T02:42:36.209Z,23.09
2017-01-25T02:42:51.031Z,23.09
2017-01-25T02:43:05.978Z,23.1
2017-01-25T02:43:21.058Z,23.04
2017-01-25T02:43:36.233Z,23.01
2017-01-25T02:43:50.849Z,23
2017-01-25T02:44:05.708Z,23.04
2017-01-25T02:44:20.422Z,23.01
2017-01-25T02:44:35.477Z,23.07
2017-01-25T02:44:50.421Z,23.03
2017-01-25T02:45:05.324Z,23.04
2017-01-25T02:45:20.411Z,22.89
2017-01-25T02:45:34.962Z,22.99
2017-01-25T02:45:49.764Z,22.86
2017-01-25T02:46:04.799Z,22.91
2017-01-25T02:46:19.800Z,22.89
2017-01-25T02:46:34.805Z,22.89
2017-01-25T02:46:49.484Z,22.94
2017-01-25T02:47:04.395Z,22.94
2017-01-25T02:47:19.333Z,22.96
2017-01-25T02:47:34.175Z,22.99
2017-01-25T02:47:49.054Z,23.09
2017-01-25T02:48:03.867Z,23.07
2017-01-25T02:48:18.748Z,23.03
2017-01-25T02:48:33.286Z,22.97
2017-01-25T02:48:48.068Z,22.89
2017-01-25T02:49:03.289Z,22.92
2017-01-25T02:49:18.291Z,22.94
2017-01-25T02:49:33.279Z,22.88
2017-01-25T02:49:48.630Z,22.81
2017-01-25T02:50:03.413Z,22.84
2017-01-25T02:50:18.393Z,22.85
2017-01-25T02:50:33.383Z,22.84
2017-01-25T02:50:48.199Z,22.85
2017-01-25T02:51:03.010Z,22.81
2017-01-25T02:51:17.875Z,22.84
2017-01-25T02:51:32.735Z,22.84
2017-01-25T02:51:47.641Z,22.89
2017-01-25T02:52:02.677Z,22.89
2017-01-25T02:52:17.533Z,22.79
2017-01-25T02:52:32.177Z,22.79
2017-01-25T02:52:46.889Z,22.78
2017-01-25T02:53:01.918Z,22.84
2017-01-25T02:53:17.238Z,22.78
2017-01-25T02:53:32.389Z,22.7
2017-01-25T02:53:47.175Z,22.85
2017-01-25T02:54:01.990Z,22.79
2017-01-25T02:54:16.915Z,22.81
2017-01-25T02:54:31.904Z,22.81
2017-01-25T02:54:47.143Z,22.73
2017-01-25T02:55:02.163Z,22.75
2017-01-25T02:55:17.009Z,22.79
2017-01-25T02:55:31.773Z,22.82
2017-01-25T02:55:46.488Z,22.84
2017-01-25T02:56:01.631Z,22.82
2017-01-25T02:56:16.706Z,22.73
2017-01-25T02:56:31.818Z,22.81
2017-01-25T02:56:46.627Z,22.81
2017-01-25T02:57:01.534Z,22.84
2017-01-25T02:57:16.466Z,22.78
2017-01-25T02:57:31.538Z,22.86
2017-01-25T02:57:46.681Z,22.91
2017-01-25T02:58:01.603Z,22.92
2017-01-25T02:58:16.622Z,22.88
2017-01-25T02:58:31.238Z,22.88
2017-01-25T02:58:46.086Z,23.03
2017-01-25T02:59:00.868Z,22.96
2017-01-25T02:59:15.851Z,23.07
2017-01-25T02:59:30.765Z,23.07
2017-01-25T02:59:45.402Z,23.14
2017-01-25T03:00:00.395Z,23.09
2017-01-25T03:00:15.390Z,23.09
2017-01-25T03:00:30.429Z,23.1
2017-01-25T03:00:45.303Z,23.1
2017-01-25T03:01:00.439Z,23.12
2017-01-25T03:01:15.379Z,23.09
2017-01-25T03:01:30.169Z,23.1
2017-01-25T03:01:45.288Z,23.07
2017-01-25T03:02:00.128Z,23.12
2017-01-25T03:02:14.947Z,23.09
2017-01-25T03:02:29.844Z,23.01
2017-01-25T03:02:44.915Z,23.12
2017-01-25T03:02:59.973Z,23.09
2017-01-25T03:03:14.698Z,23.03
2017-01-25T03:03:29.415Z,22.97
2017-01-25T03:03:44.237Z,22.99
2017-01-25T03:03:59.044Z,23
2017-01-25T03:04:13.991Z,22.97
2017-01-25T03:04:28.628Z,22.97
2017-01-25T03:04:43.219Z,23
2017-01-25T03:04:58.201Z,22.97
2017-01-25T03:05:13.305Z,23.01
2017-01-25T03:05:28.005Z,23.04
2017-01-25T03:05:42.921Z,22.96
2017-01-25T03:05:57.931Z,22.86
2017-01-25T03:06:13.027Z,22.92
2017-01-25T03:06:28.152Z,22.94
2017-01-25T03:06:43.062Z,22.89
2017-01-25T03:06:57.928Z,22.86
2017-01-25T03:07:12.696Z,22.92
2017-01-25T03:07:27.542Z,22.92
2017-01-25T03:07:42.600Z,22.96
2017-01-25T03:07:57.658Z,22.94
2017-01-25T03:08:12.847Z,22.88
2017-01-25T03:08:27.778Z,22.97
2017-01-25T03:08:42.858Z,23
2017-01-25T03:08:59.087Z,22.94
2017-01-25T03:10:03.848Z,23.09
2017-01-25T03:10:18.604Z,23.07
2017-01-25T03:10:32.525Z,23.07
2017-01-25T03:10:47.260Z,23.12
2017-01-25T03:11:02.160Z,23.06
2017-01-25T03:11:17.196Z,23.04
2017-01-25T03:11:32.079Z,23.09
2017-01-25T03:11:46.969Z,23.06
2017-01-25T03:12:02.029Z,23.09
2017-01-25T03:12:16.834Z,23.1
2017-01-25T03:12:31.639Z,23.09
2017-01-25T03:12:46.414Z,23.14
2017-01-25T03:13:01.381Z,23.12
2017-01-25T03:13:16.227Z,23.06